Bookmark and Share
Track history (hours):
 

Superferry II

Last reported at 2014-Apr-18 12:33 UTC. Time now 2014-Apr-18 13:10 UTC.
Position N 37°43' E 024°53'.

Length 122 m; draft 4.7 m.

Type: Passenger vessel. MMSI: 237001000.

NotesDate/timePositionNaut miles runAvg speedWind from/ knotsBaromVisibWave heightAir tempDewpointWater temp
2014-Apr-18 12:33N 37°43' E 024°53'1716.9
2014-Apr-18 11:33N 37°32' E 025°09'9 9.2
2014-Apr-18 10:33N 37°28' E 025°19'4 4.1
2014-Apr-18 09:33N 37°29' E 025°15'1312.4
2014-Apr-18 08:32N 37°36' E 025°01'52 6.1
2014-Apr-18 00:03N 38°01' E 024°03'2717.9
2014-Apr-17 22:32N 37°48' E 024°34'1918.3
2014-Apr-17 21:30N 37°38' E 024°54'1718.4
2014-Apr-17 20:33N 37°30' E 025°13'3 3.0
2014-Apr-17 19:32N 37°31' E 025°10'5814.5
2014-Apr-17 15:33N 37°60' E 024°06'23 7.7
2014-Apr-17 12:33N 37°49' E 024°32'2019.5
2014-Apr-17 11:32N 37°39' E 024°53'1515.3
2014-Apr-17 10:33N 37°31' E 025°10'5 5.4
2014-Apr-17 09:34N 37°29' E 025°16'6515.1
2014-Apr-17 05:15N 38°01' E 024°04'43 2.6
2014-Apr-16 12:28N 37°42' E 024°53'1617.5
2014-Apr-16 11:32N 37°32' E 025°10'9 8.9
2014-Apr-16 10:32N 37°28' E 025°19'9 9.1
2014-Apr-16 09:33N 37°32' E 025°10'45 2.3
2014-Apr-15 14:33N 37°56' E 024°22'4411.1
2014-Apr-15 10:32N 37°32' E 025°09'9 9.5
2014-Apr-15 09:34N 37°28' E 025°19'3 2.9
2014-Apr-15 08:34N 37°29' E 025°16'51 2.7
2014-Apr-14 13:33N 37°56' E 024°22'4514.9
2014-Apr-14 10:33N 37°32' E 025°09'9 8.9
2014-Apr-14 09:32N 37°28' E 025°19'0 0.3
2014-Apr-14 08:34N 37°28' E 025°19'1413.7
2014-Apr-14 07:33N 37°35' E 025°04'37 3.0
2014-Apr-13 19:28N 37°55' E 024°26'5 1.0
2014-Apr-13 14:07N 37°54' E 024°32'2112.9
2014-Apr-13 12:27N 37°42' E 024°54'1516.8
2014-Apr-13 11:33N 37°32' E 025°09'9 9.1
2014-Apr-13 10:33N 37°28' E 025°19'2 1.6
2014-Apr-13 09:33N 37°28' E 025°17'1413.7
2014-Apr-13 08:32N 37°36' E 025°03'31 1.7
2014-Apr-12 14:09N 37°54' E 024°31'2613.6
2014-Apr-12 12:13N 37°39' E 024°58'1116.2
2014-Apr-12 11:32N 37°32' E 025°09'9 9.3
2014-Apr-12 10:33N 37°28' E 025°19'6 5.8
2014-Apr-12 09:33N 37°30' E 025°13'40 2.8
2014-Apr-11 19:19N 37°54' E 024°32'24 3.5
2014-Apr-11 12:19N 37°40' E 024°57'1316.7
2014-Apr-11 11:33N 37°32' E 025°09'9 9.0
2014-Apr-11 10:32N 37°28' E 025°19'1 0.7
2014-Apr-11 09:33N 37°28' E 025°19'50 2.6
2014-Apr-10 14:31N 37°55' E 024°26'2713.6
2014-Apr-10 12:33N 37°41' E 024°55'1514.7
2014-Apr-10 11:33N 37°32' E 025°09'9 9.0
2014-Apr-10 10:33N 37°28' E 025°19'2 2.0
2014-Apr-10 09:33N 37°28' E 025°17'1514.1
2014-Apr-10 08:30N 37°37' E 025°01'35 0.8
2014-Apr-08 14:31N 37°56' E 024°24'  

Dump ship's entire track history

sailing weather and tide predictions

Superferry II — SWKV — position and weather